createdAt,value
2022-11-30T00:01:23.943Z,99191.50
2022-11-30T00:03:58.408Z,99230.00
2022-11-30T00:06:25.751Z,99288.31
2022-11-30T00:08:57.745Z,99270.06
2022-11-30T00:11:28.434Z,99271.53
2022-11-30T00:13:55.724Z,99255.75
2022-11-30T00:16:23.082Z,99286.50
2022-11-30T00:18:51.098Z,99267.75
2022-11-30T00:21:18.559Z,99287.28
2022-11-30T00:23:47.364Z,99299.72
2022-11-30T00:26:19.268Z,99313.81
2022-11-30T00:28:47.536Z,99171.78
2022-11-30T00:31:17.886Z,99264.34
2022-11-30T00:33:46.088Z,99216.13
2022-11-30T00:36:20.079Z,99277.13
2022-11-30T00:38:48.013Z,99274.69
2022-11-30T00:41:15.962Z,99262.53
2022-11-30T00:43:43.264Z,99272.41
2022-11-30T00:46:11.502Z,99299.03
2022-11-30T00:48:40.064Z,99259.09
2022-11-30T00:51:09.312Z,99284.94
2022-11-30T00:53:36.967Z,99284.22
2022-11-30T00:56:04.800Z,99267.06
2022-11-30T00:58:31.860Z,99260.47
2022-11-30T01:00:58.881Z,99282.66
2022-11-30T01:03:25.858Z,99276.44
2022-11-30T01:05:53.027Z,99246.22
2022-11-30T01:08:20.046Z,99268.06
2022-11-30T01:10:50.893Z,99286.56
2022-11-30T01:13:18.201Z,99306.81
2022-11-30T01:15:45.358Z,99291.22
2022-11-30T01:18:12.767Z,99271.03
2022-11-30T01:20:43.468Z,99298.84
2022-11-30T01:23:11.295Z,99208.31
2022-11-30T01:25:39.735Z,99255.75
2022-11-30T01:28:07.501Z,99207.59
2022-11-30T01:30:34.491Z,99276.28
2022-11-30T01:33:05.999Z,99289.97
2022-11-30T01:35:33.247Z,99247.16
2022-11-30T01:38:00.233Z,99291.59
2022-11-30T01:40:27.436Z,99240.47
2022-11-30T01:42:54.405Z,99266.13
2022-11-30T01:45:21.552Z,99261.41
2022-11-30T01:47:52.903Z,99284.25
2022-11-30T01:50:30.261Z,99271.66
2022-11-30T01:52:57.831Z,99305.56
2022-11-30T01:55:42.419Z,99265.31
2022-11-30T01:58:18.537Z,99316.56
2022-11-30T02:00:48.108Z,99284.97
2022-11-30T02:03:42.262Z,99272.09
2022-11-30T02:06:09.893Z,99281.66
2022-11-30T02:08:37.072Z,99196.38
2022-11-30T02:11:08.244Z,99207.41
2022-11-30T02:14:22.755Z,99269.47
2022-11-30T02:17:13.867Z,99258.31
2022-11-30T02:20:09.391Z,99250.53
2022-11-30T02:23:02.391Z,99243.84
2022-11-30T02:26:08.993Z,99237.19
2022-11-30T02:28:54.037Z,99260.72
2022-11-30T02:31:31.208Z,99253.06
2022-11-30T02:33:59.516Z,99202.66
2022-11-30T02:36:28.263Z,99296.75
2022-11-30T02:38:56.785Z,99297.94
2022-11-30T02:41:23.680Z,99224.44
2022-11-30T02:43:51.522Z,99217.50
2022-11-30T02:46:47.109Z,99246.16
2022-11-30T02:49:37.958Z,99262.09
2022-11-30T02:52:06.469Z,99248.34
2022-11-30T02:54:34.642Z,99231.56
2022-11-30T02:57:01.606Z,99223.00
2022-11-30T02:59:28.986Z,99218.56
2022-11-30T03:01:56.599Z,99259.75
2022-11-30T03:04:23.848Z,99205.09
2022-11-30T03:06:51.089Z,99273.03
2022-11-30T03:09:17.999Z,99291.69
2022-11-30T03:11:45.221Z,99269.78
2022-11-30T03:14:12.453Z,99278.75
2022-11-30T03:16:39.595Z,99294.53
2022-11-30T03:19:06.709Z,99258.13
2022-11-30T03:21:33.789Z,99225.41
2022-11-30T03:24:00.856Z,99233.00
2022-11-30T03:26:27.771Z,99277.34
2022-11-30T03:28:54.931Z,99283.63
2022-11-30T03:31:21.996Z,99305.41
2022-11-30T03:33:49.132Z,99266.13
2022-11-30T03:36:16.105Z,99285.25
2022-11-30T03:38:43.344Z,99255.88
2022-11-30T03:41:16.958Z,99244.06
2022-11-30T03:43:45.412Z,99269.81
2022-11-30T03:46:13.805Z,99263.16
2022-11-30T03:48:41.437Z,99221.25
2022-11-30T03:51:09.880Z,99302.41
2022-11-30T03:53:37.451Z,99298.13
2022-11-30T03:56:09.102Z,99259.19
2022-11-30T03:58:36.488Z,99314.75
2022-11-30T04:01:06.612Z,99289.91
2022-11-30T04:03:34.489Z,99238.91
2022-11-30T04:06:02.119Z,99291.44
2022-11-30T04:08:30.188Z,99313.22
2022-11-30T04:10:59.760Z,99249.56
2022-11-30T04:13:28.703Z,99232.03
2022-11-30T04:15:56.149Z,99300.56
2022-11-30T04:18:25.752Z,99286.03
2022-11-30T04:20:58.423Z,99243.38
2022-11-30T04:23:29.734Z,99248.94
2022-11-30T04:25:57.618Z,99262.25
2022-11-30T04:28:24.974Z,99267.38
2022-11-30T04:30:54.129Z,99278.50
2022-11-30T04:33:21.332Z,99309.25
2022-11-30T04:35:56.882Z,99263.69
2022-11-30T04:38:25.270Z,99255.19
2022-11-30T04:40:52.779Z,99279.41
2022-11-30T04:43:20.604Z,99253.41
2022-11-30T04:45:48.237Z,99241.69
2022-11-30T04:48:16.839Z,99219.84
2022-11-30T04:50:47.638Z,99244.94
2022-11-30T04:53:14.800Z,99288.09
2022-11-30T04:55:41.926Z,99256.28
2022-11-30T04:58:08.913Z,99284.81
2022-11-30T05:00:38.001Z,99256.47
2022-11-30T05:03:05.000Z,99289.25
2022-11-30T05:05:32.756Z,99274.88
2022-11-30T05:08:00.513Z,99283.06
2022-11-30T05:10:28.946Z,99237.09
2022-11-30T05:12:56.937Z,99262.41
2022-11-30T05:15:23.903Z,99247.72
2022-11-30T05:17:50.838Z,99253.44
2022-11-30T05:20:18.136Z,99244.25
2022-11-30T05:22:45.073Z,99238.25
2022-11-30T05:25:12.514Z,99263.63
2022-11-30T05:27:39.430Z,99268.66
2022-11-30T05:30:10.435Z,99239.94
2022-11-30T05:32:37.332Z,99247.78
2022-11-30T05:35:06.153Z,99231.00
2022-11-30T05:37:33.161Z,99229.41
2022-11-30T05:40:03.816Z,99241.78
2022-11-30T05:42:30.903Z,99277.31
2022-11-30T05:44:57.968Z,99215.34
2022-11-30T05:47:25.651Z,99275.50
2022-11-30T05:49:52.727Z,99231.00
2022-11-30T05:52:19.974Z,99242.31
2022-11-30T05:54:47.184Z,99255.56
2022-11-30T05:57:14.427Z,99245.50
2022-11-30T05:59:41.529Z,99217.09
2022-11-30T06:02:08.573Z,99257.19
2022-11-30T06:04:35.907Z,99239.22
2022-11-30T06:07:02.823Z,99249.31
2022-11-30T06:09:30.794Z,99218.56
2022-11-30T06:11:57.691Z,99229.03
2022-11-30T06:14:24.728Z,99264.34
2022-11-30T06:16:52.017Z,99254.00
2022-11-30T06:19:18.994Z,99282.22
2022-11-30T06:21:45.873Z,99251.41
2022-11-30T06:24:13.031Z,99259.09
2022-11-30T06:26:40.208Z,99267.97
2022-11-30T06:29:07.380Z,99235.41
2022-11-30T06:31:34.407Z,99221.94
2022-11-30T06:34:01.798Z,99207.13
2022-11-30T06:36:34.175Z,99210.19
2022-11-30T06:39:03.856Z,99241.97
2022-11-30T06:41:30.875Z,99249.50
2022-11-30T06:43:57.804Z,99228.59
2022-11-30T06:46:26.140Z,99261.94
2022-11-30T06:48:53.898Z,99210.56
2022-11-30T06:51:21.161Z,99239.81
2022-11-30T06:53:48.188Z,99208.09
2022-11-30T06:56:15.245Z,99264.25
2022-11-30T06:58:42.559Z,99241.34
2022-11-30T07:01:13.139Z,99225.06
2022-11-30T07:03:41.923Z,99243.53
2022-11-30T07:06:12.214Z,99233.28
2022-11-30T07:08:40.641Z,99250.25
2022-11-30T07:11:09.464Z,99232.91
2022-11-30T07:13:37.245Z,99229.53
2022-11-30T07:16:10.955Z,99230.41
2022-11-30T07:18:38.874Z,99250.25
2022-11-30T07:21:06.644Z,99211.94
2022-11-30T07:23:56.573Z,99243.50
2022-11-30T07:26:25.443Z,99225.00
2022-11-30T07:28:55.526Z,99228.75
2022-11-30T07:31:24.829Z,99263.78
2022-11-30T07:33:52.949Z,99238.81
2022-11-30T07:36:23.946Z,99244.97
2022-11-30T07:38:51.380Z,99253.31
2022-11-30T07:41:18.716Z,99295.81
2022-11-30T07:43:45.756Z,99289.16
2022-11-30T07:46:14.539Z,99255.25
2022-11-30T07:48:42.798Z,99263.13
2022-11-30T07:51:19.274Z,99295.56
2022-11-30T07:53:46.797Z,99269.75
2022-11-30T07:56:17.640Z,99247.56
2022-11-30T07:58:45.722Z,99254.25
2022-11-30T08:01:17.266Z,99274.25
2022-11-30T08:03:44.938Z,99270.75
2022-11-30T08:06:15.790Z,99293.38
2022-11-30T08:08:45.153Z,99258.22
2022-11-30T08:11:17.212Z,99258.53
2022-11-30T08:13:45.124Z,99281.22
2022-11-30T08:16:20.510Z,99299.25
2022-11-30T08:18:47.952Z,99246.84
2022-11-30T08:21:17.682Z,99286.31
2022-11-30T08:23:49.004Z,99270.59
2022-11-30T08:26:26.502Z,99278.66
2022-11-30T08:28:54.839Z,99281.53
2022-11-30T08:31:26.050Z,99250.00
2022-11-30T08:33:58.865Z,99270.38
2022-11-30T08:36:29.422Z,99294.38
2022-11-30T08:38:59.408Z,99309.00
2022-11-30T08:41:27.311Z,99296.78
2022-11-30T08:43:54.361Z,99298.16
2022-11-30T08:49:26.567Z,99293.59
2022-11-30T08:54:47.753Z,99332.72
2022-11-30T08:57:21.687Z,99322.97
2022-11-30T08:59:49.151Z,99345.22
2022-11-30T09:02:19.221Z,99313.88
2022-11-30T09:04:49.075Z,99307.41
2022-11-30T09:07:16.665Z,99369.03
2022-11-30T09:09:43.762Z,99338.31
2022-11-30T09:12:11.136Z,99315.31
2022-11-30T09:15:01.030Z,99314.03
2022-11-30T09:17:28.213Z,99326.81
2022-11-30T09:19:55.131Z,99302.09
2022-11-30T09:22:22.047Z,99334.75
2022-11-30T09:24:51.193Z,99311.84
2022-11-30T09:27:18.604Z,99325.56
2022-11-30T09:29:45.715Z,99297.44
2022-11-30T09:32:12.840Z,99354.25
2022-11-30T09:34:39.725Z,99339.63
2022-11-30T09:37:06.713Z,99324.22
2022-11-30T09:39:33.623Z,99349.63
2022-11-30T09:42:14.168Z,99363.19
2022-11-30T09:45:07.848Z,99340.50
2022-11-30T09:48:12.406Z,99368.94
2022-11-30T09:50:43.943Z,99340.69
2022-11-30T09:53:37.052Z,99339.75
2022-11-30T09:56:34.269Z,99329.72
2022-11-30T09:59:29.787Z,99333.19
2022-11-30T10:02:01.375Z,99332.72
2022-11-30T10:04:29.965Z,99325.03
2022-11-30T10:07:41.743Z,99381.91
2022-11-30T10:10:43.493Z,99327.59
2022-11-30T10:13:28.006Z,99351.41
2022-11-30T10:16:13.161Z,99322.03
2022-11-30T10:19:05.695Z,99326.81
2022-11-30T10:22:11.146Z,99307.31
2022-11-30T10:25:50.719Z,99318.31
2022-11-30T10:28:52.177Z,99363.56
2022-11-30T10:31:30.104Z,99401.16
2022-11-30T10:34:16.316Z,99342.97
2022-11-30T10:36:49.168Z,99345.28
2022-11-30T10:39:38.960Z,99356.09
2022-11-30T10:42:26.315Z,99345.91
2022-11-30T10:45:13.604Z,99361.97
2022-11-30T10:47:50.324Z,99308.28
2022-11-30T10:50:18.130Z,99326.13
2022-11-30T10:52:53.924Z,99345.25
2022-11-30T10:55:28.308Z,99349.88
2022-11-30T10:58:31.381Z,99294.03
2022-11-30T11:01:05.658Z,99383.22
2022-11-30T11:03:34.054Z,99332.69
2022-11-30T11:06:03.866Z,99345.97
2022-11-30T11:08:31.244Z,99325.66
2022-11-30T11:10:58.343Z,99335.31
2022-11-30T11:13:41.711Z,99267.38
2022-11-30T11:16:12.841Z,99312.72
2022-11-30T11:18:57.880Z,99313.13
2022-11-30T11:21:25.381Z,99277.31
2022-11-30T11:23:55.946Z,99346.28
2022-11-30T11:26:29.805Z,99313.00
2022-11-30T11:28:59.743Z,99280.44
2022-11-30T11:31:37.790Z,99337.75
2022-11-30T11:34:24.228Z,99314.19
2022-11-30T11:37:06.463Z,99286.66
2022-11-30T11:39:34.044Z,99344.16
2022-11-30T11:42:01.124Z,99312.03
2022-11-30T11:44:28.561Z,99291.16
2022-11-30T11:47:06.976Z,99360.53
2022-11-30T11:49:39.155Z,99324.00
2022-11-30T11:52:08.668Z,99318.56
2022-11-30T11:54:47.421Z,99326.22
2022-11-30T11:57:17.277Z,99327.53
2022-11-30T12:00:17.711Z,99347.56
2022-11-30T12:03:17.897Z,99292.97
2022-11-30T12:06:03.943Z,99311.31
2022-11-30T12:08:57.969Z,99335.47
2022-11-30T12:11:45.872Z,99299.63
2022-11-30T12:14:17.020Z,99346.53
2022-11-30T12:17:30.318Z,99343.84
2022-11-30T12:20:08.397Z,99332.13
2022-11-30T12:23:05.119Z,99324.31
2022-11-30T12:25:47.625Z,99319.97
2022-11-30T12:28:37.758Z,99361.75
2022-11-30T12:31:18.725Z,99349.88
2022-11-30T12:34:17.293Z,99341.34
2022-11-30T12:37:00.043Z,99326.03
2022-11-30T12:40:11.177Z,99313.94
2022-11-30T12:42:55.585Z,99276.47
2022-11-30T12:45:47.632Z,99322.03
2022-11-30T12:48:29.392Z,99291.47
2022-11-30T12:51:05.619Z,99336.94
2022-11-30T12:54:01.465Z,99378.66
2022-11-30T12:56:46.678Z,99319.47
2022-11-30T12:59:41.079Z,99333.66
2022-11-30T13:02:32.017Z,99338.03
2022-11-30T13:05:12.706Z,99318.97
2022-11-30T13:07:50.302Z,99373.81
2022-11-30T13:10:36.941Z,99324.69
2022-11-30T13:13:04.916Z,99308.19
2022-11-30T13:15:35.038Z,99354.31
2022-11-30T13:18:03.235Z,99307.47
2022-11-30T13:20:46.645Z,99358.81
2022-11-30T13:23:31.874Z,99308.38
2022-11-30T13:26:14.928Z,99347.56
2022-11-30T13:28:41.762Z,99288.69
2022-11-30T13:31:39.043Z,99322.31
2022-11-30T13:34:26.563Z,99339.50
2022-11-30T13:37:27.175Z,99327.31
2022-11-30T13:39:56.274Z,99315.31
2022-11-30T13:42:38.162Z,99329.09
2022-11-30T13:45:17.460Z,99298.53
2022-11-30T13:47:51.773Z,99306.28
2022-11-30T13:50:38.737Z,99340.63
2022-11-30T13:53:27.614Z,99351.63
2022-11-30T13:56:05.433Z,99322.84
2022-11-30T13:58:33.831Z,99344.72
2022-11-30T14:01:22.869Z,99300.59
2022-11-30T14:04:22.849Z,99300.00
2022-11-30T14:06:53.156Z,99319.88
2022-11-30T14:09:41.835Z,99290.53
2022-11-30T14:12:45.045Z,99333.38
2022-11-30T14:15:47.595Z,99252.63
2022-11-30T14:18:22.931Z,99340.03
2022-11-30T14:20:58.309Z,99300.19
2022-11-30T14:24:23.877Z,99302.47
2022-11-30T14:26:51.861Z,99321.72
2022-11-30T14:29:39.552Z,99316.81
2022-11-30T14:32:21.211Z,99275.59
2022-11-30T14:35:01.174Z,99260.41
2022-11-30T14:37:41.199Z,99272.38
2022-11-30T14:40:18.581Z,99297.63
2022-11-30T14:42:53.362Z,99302.66
2022-11-30T14:45:29.892Z,99313.69
2022-11-30T14:48:15.078Z,99269.47
2022-11-30T14:50:51.097Z,99328.38
2022-11-30T14:53:59.167Z,99285.16
2022-11-30T14:56:37.324Z,99316.41
2022-11-30T14:59:16.560Z,99286.03
2022-11-30T15:01:44.373Z,99296.94
2022-11-30T15:04:16.338Z,99274.31
2022-11-30T15:06:44.155Z,99287.28
2022-11-30T15:09:18.982Z,99273.75
2022-11-30T15:11:50.171Z,99304.75
2022-11-30T15:14:17.402Z,99278.56
2022-11-30T15:16:54.406Z,99289.03
2022-11-30T15:19:34.475Z,99225.41
2022-11-30T15:22:01.880Z,99258.50
2022-11-30T15:24:29.976Z,99227.25
2022-11-30T15:27:10.956Z,99298.09
2022-11-30T15:29:47.220Z,99272.72
2022-11-30T15:32:23.212Z,99276.53
2022-11-30T15:34:57.028Z,99229.47
2022-11-30T15:37:35.402Z,99272.38
2022-11-30T15:40:06.188Z,99297.69
2022-11-30T15:42:40.724Z,99313.50
2022-11-30T15:45:24.992Z,99303.88
2022-11-30T15:47:53.952Z,99316.78
2022-11-30T15:50:26.991Z,99264.88
2022-11-30T15:52:56.510Z,99303.63
2022-11-30T15:55:53.088Z,99252.56
2022-11-30T15:59:05.528Z,99321.94
2022-11-30T16:02:08.352Z,99292.03
2022-11-30T16:04:57.212Z,99276.63
2022-11-30T16:07:29.236Z,99294.50
2022-11-30T16:10:34.716Z,99272.50
2022-11-30T16:13:02.265Z,99344.72
2022-11-30T16:15:36.183Z,99311.22
2022-11-30T16:18:24.307Z,99313.44
2022-11-30T16:20:55.385Z,99257.34
2022-11-30T16:23:22.394Z,99279.84
2022-11-30T16:25:50.935Z,99312.47
2022-11-30T16:28:20.117Z,99327.75
2022-11-30T16:30:48.117Z,99283.63
2022-11-30T16:33:25.141Z,99300.78
2022-11-30T16:36:00.357Z,99315.22
2022-11-30T16:38:27.977Z,99340.97
2022-11-30T16:40:55.983Z,99305.75
2022-11-30T16:43:26.158Z,99362.31
2022-11-30T16:45:53.123Z,99342.22
2022-11-30T16:48:20.501Z,99367.97
2022-11-30T16:50:47.561Z,99317.69
2022-11-30T16:53:15.496Z,99276.81
2022-11-30T16:55:42.818Z,99323.88
2022-11-30T16:58:09.799Z,99332.72
2022-11-30T17:00:40.478Z,99292.84
2022-11-30T17:03:26.656Z,99360.06
2022-11-30T17:05:53.748Z,99301.31
2022-11-30T17:08:20.797Z,99313.59
2022-11-30T17:10:52.941Z,99312.28
2022-11-30T17:13:21.192Z,99344.34
2022-11-30T17:15:48.942Z,99329.47
2022-11-30T17:18:15.932Z,99274.66
2022-11-30T17:20:42.959Z,99307.75
2022-11-30T17:23:10.151Z,99295.16
2022-11-30T17:25:37.123Z,99346.69
2022-11-30T17:28:04.343Z,99302.94
2022-11-30T17:30:31.532Z,99247.88
2022-11-30T17:32:58.485Z,99315.69
2022-11-30T17:35:25.457Z,99322.78
2022-11-30T17:37:54.353Z,99353.03
2022-11-30T17:40:21.470Z,99320.28
2022-11-30T17:42:48.513Z,99343.09
2022-11-30T17:45:15.673Z,99286.94
2022-11-30T17:47:42.744Z,99284.84
2022-11-30T17:50:13.461Z,99294.16
2022-11-30T17:52:40.748Z,99320.34
2022-11-30T17:55:08.299Z,99318.31
2022-11-30T17:57:37.745Z,99280.16
2022-11-30T18:00:06.309Z,99299.56
2022-11-30T18:02:33.520Z,99341.31
2022-11-30T18:05:00.476Z,99321.69
2022-11-30T18:07:28.598Z,99273.97
2022-11-30T18:09:56.334Z,99297.09
2022-11-30T18:12:23.356Z,99258.06
2022-11-30T18:14:51.142Z,99262.50
2022-11-30T18:17:18.372Z,99360.81
2022-11-30T18:19:45.450Z,99337.44
2022-11-30T18:22:12.369Z,99368.63
2022-11-30T18:24:39.394Z,99334.16
2022-11-30T18:27:06.327Z,99301.72
2022-11-30T18:29:33.420Z,99379.47
2022-11-30T18:32:00.558Z,99381.56
2022-11-30T18:34:27.538Z,99357.69
2022-11-30T18:36:54.640Z,99382.44
2022-11-30T18:39:21.633Z,99327.72
2022-11-30T18:41:49.590Z,99328.59
2022-11-30T18:44:16.816Z,99413.44
2022-11-30T18:46:44.182Z,99342.16
2022-11-30T18:49:11.665Z,99337.25
2022-11-30T18:51:39.079Z,99415.47
2022-11-30T18:54:10.082Z,99387.25
2022-11-30T18:56:38.533Z,99330.31
2022-11-30T18:59:10.261Z,99319.56
2022-11-30T19:01:37.453Z,99367.00
2022-11-30T19:04:08.077Z,99338.84
2022-11-30T19:06:36.630Z,99357.88
2022-11-30T19:09:08.632Z,99410.56
2022-11-30T19:11:37.075Z,99383.22
2022-11-30T19:14:04.861Z,99356.69
2022-11-30T19:16:34.566Z,99364.38
2022-11-30T19:19:08.346Z,99378.44
2022-11-30T19:21:35.660Z,99434.50
2022-11-30T19:24:02.862Z,99413.97
2022-11-30T19:26:29.928Z,99375.22
2022-11-30T19:28:57.995Z,99391.44
2022-11-30T19:31:26.103Z,99444.28
2022-11-30T19:33:55.421Z,99372.72
2022-11-30T19:36:30.432Z,99416.31
2022-11-30T19:39:01.272Z,99382.56
2022-11-30T19:41:28.777Z,99423.31
2022-11-30T19:44:04.030Z,99279.47
2022-11-30T19:46:33.200Z,99356.13
2022-11-30T19:49:02.029Z,99375.84
2022-11-30T19:51:30.874Z,99347.69
2022-11-30T19:53:59.312Z,99391.34
2022-11-30T19:56:29.114Z,99438.00
2022-11-30T19:59:02.705Z,99367.75
2022-11-30T20:01:32.208Z,99421.00
2022-11-30T20:03:59.273Z,99380.47
2022-11-30T20:06:36.457Z,99409.69
2022-11-30T20:09:08.366Z,99392.91
2022-11-30T20:11:35.717Z,99374.09
2022-11-30T20:14:02.709Z,99342.50
2022-11-30T20:16:30.727Z,99443.00
2022-11-30T20:19:01.074Z,99425.84
2022-11-30T20:21:32.222Z,99423.31
2022-11-30T20:24:01.967Z,99443.19
2022-11-30T20:26:33.482Z,99380.81
2022-11-30T20:29:03.101Z,99415.16
2022-11-30T20:31:33.837Z,99467.81
2022-11-30T20:34:01.046Z,99382.06
2022-11-30T20:36:28.285Z,99445.41
2022-11-30T20:38:55.476Z,99418.91
2022-11-30T20:41:24.424Z,99494.59
2022-11-30T20:43:51.963Z,99394.81
2022-11-30T20:46:22.361Z,99452.97
2022-11-30T20:48:50.110Z,99398.50
2022-11-30T20:51:32.091Z,99444.56
2022-11-30T20:54:03.457Z,99361.53
2022-11-30T20:56:31.257Z,99409.34
2022-11-30T20:59:03.385Z,99474.22
2022-11-30T21:01:30.875Z,99402.81
2022-11-30T21:03:59.552Z,99461.22
2022-11-30T21:06:28.200Z,99398.94
2022-11-30T21:08:55.330Z,99373.16
2022-11-30T21:11:22.771Z,99414.50
2022-11-30T21:13:50.820Z,99451.88
2022-11-30T21:16:27.683Z,99457.38
2022-11-30T21:18:59.202Z,99411.75
2022-11-30T21:21:30.801Z,99469.91
2022-11-30T21:24:00.533Z,99335.78
2022-11-30T21:26:31.439Z,99455.56
2022-11-30T21:29:19.127Z,99453.91
2022-11-30T21:31:46.312Z,99492.13
2022-11-30T21:34:14.294Z,99377.94
2022-11-30T21:36:41.757Z,99357.56
2022-11-30T21:39:12.843Z,99455.25
2022-11-30T21:41:41.163Z,99450.56
2022-11-30T21:44:12.424Z,99389.81
2022-11-30T21:46:39.459Z,99352.75
2022-11-30T21:49:07.148Z,99329.13
2022-11-30T21:51:34.312Z,99412.97
2022-11-30T21:54:04.463Z,99347.63
2022-11-30T21:56:35.475Z,99413.81
2022-11-30T21:59:06.023Z,99336.00
2022-11-30T22:01:40.207Z,99384.69
2022-11-30T22:04:10.138Z,99330.59
2022-11-30T22:06:38.878Z,99383.84
2022-11-30T22:09:11.209Z,99452.38
2022-11-30T22:11:41.275Z,99435.56
2022-11-30T22:14:12.833Z,99471.03
2022-11-30T22:16:40.226Z,99443.88
2022-11-30T22:19:08.111Z,99486.22
2022-11-30T22:21:35.528Z,99481.97
2022-11-30T22:24:06.720Z,99482.97
2022-11-30T22:26:43.323Z,99409.00
2022-11-30T22:29:16.157Z,99349.88
2022-11-30T22:31:45.941Z,99341.25
2022-11-30T22:34:13.830Z,99454.63
2022-11-30T22:36:43.401Z,99385.03
2022-11-30T22:39:17.552Z,99484.13
2022-11-30T22:41:49.947Z,99404.59
2022-11-30T22:44:20.701Z,99381.19
2022-11-30T22:46:47.699Z,99359.53
2022-11-30T22:49:20.696Z,99423.03
2022-11-30T22:51:48.734Z,99483.16
2022-11-30T22:54:15.954Z,99395.78
2022-11-30T22:56:43.101Z,99376.81
2022-11-30T22:59:14.889Z,99363.84
2022-11-30T23:01:48.223Z,99440.75
2022-11-30T23:04:22.867Z,99373.22
2022-11-30T23:06:53.042Z,99467.44
2022-11-30T23:09:22.804Z,99418.13
2022-11-30T23:11:50.946Z,99460.78
2022-11-30T23:14:18.781Z,99395.19
2022-11-30T23:16:45.984Z,99417.22
2022-11-30T23:19:14.307Z,99409.72
2022-11-30T23:21:44.966Z,99418.03
2022-11-30T23:24:20.791Z,99377.69
2022-11-30T23:26:48.891Z,99451.09
2022-11-30T23:29:17.445Z,99399.66
2022-11-30T23:31:46.186Z,99384.47
2022-11-30T23:34:22.360Z,99364.28
2022-11-30T23:36:53.325Z,99376.19
2022-11-30T23:39:21.006Z,99290.03
2022-11-30T23:41:48.240Z,99396.84
2022-11-30T23:44:15.614Z,99407.88
2022-11-30T23:46:42.968Z,99416.09
2022-11-30T23:49:12.748Z,99426.81
2022-11-30T23:51:39.840Z,99405.16
2022-11-30T23:54:07.050Z,99430.34
2022-11-30T23:56:34.161Z,99390.28
2022-11-30T23:59:01.105Z,99431.44
